首页
METAR-TAF:

METAR-TAF

机场 :

巴格達國際機場

巴格达, 伊拉克

纬度: 33-15-45N, 经度: 44-14-04E, 海拔: 35米

当前天气观测

该预报发布于1小时和0分钟前的01:00 UTC
风速3节,风向西转西北,在西转西南北转西北之间变化
温度 7°C
湿度 76%
气压 1020 hPa
能见度10公里或以上
散云层高于3000英尺

METAR: ORBI 230100Z 30003KT 250V330 9999 SCT030 07/03 Q1020 NOSIG

时间: 05:00 (02:00 UTC)

预报

该预报发布于4小时和0分钟前的22:00 UTC
预报有效从23日的 00点(UTC)到 23日的 24点(UTC)
风速3节,风向多变
能見度: 8000
散云层高于3000英尺

TAF: ORBI 222200Z 2300/2324 VRB03KT 8000 SCT030

超过4000个机场的气象观测和天气预报(METAR&TAF报告)。

可查询的气象台以黄色和红色小点在地图上表示。

将鼠标移到小点上方,可查看气象台名称。

然后点击查看天气观测和预报。

如需切换地图:点击带黑十字的绿色按钮放大地图;点击带横线的绿色按钮缩小地图;或者点击绿色箭头查看邻近地区的地图。


METAR-TAF: